createdAt,value
2023-01-05T00:01:27.089Z,10.76
2023-01-05T00:03:53.710Z,10.76
2023-01-05T00:06:20.368Z,10.82
2023-01-05T00:08:47.659Z,10.83
2023-01-05T00:11:43.859Z,10.85
2023-01-05T00:14:41.906Z,10.85
2023-01-05T00:17:30.394Z,10.88
2023-01-05T00:20:15.911Z,10.88
2023-01-05T00:22:47.383Z,10.91
2023-01-05T00:33:25.527Z,10.96
2023-01-05T00:35:52.039Z,10.98
2023-01-05T00:38:18.657Z,11.01
2023-01-05T00:40:45.299Z,11.00
2023-01-05T00:45:44.186Z,11.04
2023-01-05T00:48:10.788Z,11.04
2023-01-05T00:50:37.396Z,11.05
2023-01-05T00:53:03.964Z,11.00
2023-01-05T00:55:30.527Z,11.01
2023-01-05T00:57:57.044Z,11.06
2023-01-05T01:00:23.619Z,11.15
2023-01-05T01:05:26.255Z,11.09
2023-01-05T01:07:53.210Z,11.12
2023-01-05T01:10:19.984Z,11.09
2023-01-05T01:12:46.529Z,11.16
2023-01-05T01:15:13.116Z,11.21
2023-01-05T01:17:39.765Z,11.22
2023-01-05T01:20:07.085Z,11.18
2023-01-05T01:22:33.699Z,11.25
2023-01-05T01:25:01.373Z,11.14
2023-01-05T01:27:30.316Z,11.18
2023-01-05T01:29:56.893Z,11.17
2023-01-05T01:32:24.594Z,11.19
2023-01-05T01:34:51.401Z,11.21
2023-01-05T01:37:18.013Z,11.19
2023-01-05T01:39:44.577Z,11.19
2023-01-05T01:42:15.255Z,11.18
2023-01-05T01:44:48.847Z,11.15
2023-01-05T01:47:40.000Z,11.27
2023-01-05T01:50:19.669Z,11.24
2023-01-05T01:52:50.189Z,11.23
2023-01-05T01:55:18.168Z,11.21
2023-01-05T01:57:47.783Z,11.18
2023-01-05T02:00:15.085Z,11.18
2023-01-05T02:02:42.274Z,11.21
2023-01-05T02:05:12.601Z,11.24
2023-01-05T02:07:45.008Z,11.23
2023-01-05T02:10:13.154Z,11.21
2023-01-05T02:13:08.655Z,11.21
2023-01-05T02:15:51.540Z,11.21
2023-01-05T02:18:39.313Z,11.22
2023-01-05T02:21:24.403Z,11.17
2023-01-05T02:23:53.812Z,11.14
2023-01-05T02:26:29.364Z,11.15
2023-01-05T02:29:11.170Z,11.16
2023-01-05T02:31:43.859Z,11.16
2023-01-05T02:34:38.227Z,11.16
2023-01-05T02:37:19.206Z,11.18
2023-01-05T02:39:58.168Z,11.20
2023-01-05T02:42:27.662Z,11.21
2023-01-05T02:44:54.207Z,11.24
2023-01-05T02:47:27.923Z,11.22
2023-01-05T02:50:23.768Z,11.21
2023-01-05T02:55:43.248Z,11.21
2023-01-05T02:58:46.323Z,11.19
2023-01-05T03:01:28.767Z,11.17
2023-01-05T03:04:00.181Z,11.20
2023-01-05T03:06:56.839Z,11.19
2023-01-05T03:09:27.587Z,11.10
2023-01-05T03:12:24.112Z,11.14
2023-01-05T03:14:54.735Z,11.11
2023-01-05T03:17:29.413Z,11.16
2023-01-05T03:19:57.963Z,11.17
2023-01-05T03:22:48.391Z,11.17
2023-01-05T03:25:37.169Z,11.12
2023-01-05T03:28:25.044Z,11.17
2023-01-05T03:31:22.823Z,11.18
2023-01-05T03:34:25.756Z,11.23
2023-01-05T03:37:00.135Z,11.17
2023-01-05T03:39:27.839Z,11.18
2023-01-05T03:41:54.977Z,11.12
2023-01-05T03:44:22.540Z,11.17
2023-01-05T03:46:49.195Z,11.12
2023-01-05T03:49:17.768Z,11.17
2023-01-05T03:51:44.301Z,11.17
2023-01-05T03:54:10.924Z,11.20
2023-01-05T03:56:37.560Z,11.21
2023-01-05T03:59:04.118Z,11.18
2023-01-05T04:01:30.751Z,11.21
2023-01-05T04:03:57.512Z,11.15
2023-01-05T04:06:24.155Z,11.20
2023-01-05T04:08:50.715Z,11.23
2023-01-05T04:11:20.777Z,11.18
2023-01-05T04:13:47.426Z,11.15
2023-01-05T04:18:53.150Z,11.20
2023-01-05T04:21:19.883Z,11.15
2023-01-05T04:23:46.430Z,11.09
2023-01-05T04:26:13.016Z,11.13
2023-01-05T04:28:39.609Z,11.07
2023-01-05T04:31:06.262Z,11.12
2023-01-05T04:36:04.538Z,11.04
2023-01-05T04:38:31.155Z,11.05
2023-01-05T04:40:57.834Z,11.03
2023-01-05T04:43:24.525Z,11.06
2023-01-05T04:45:51.085Z,11.06
2023-01-05T04:48:17.650Z,11.01
2023-01-05T04:53:16.350Z,11.02
2023-01-05T04:58:24.030Z,11.00
2023-01-05T05:00:51.082Z,11.05
2023-01-05T05:05:49.435Z,11.16
2023-01-05T05:08:16.026Z,11.14
2023-01-05T05:10:42.670Z,11.01
2023-01-05T05:13:09.298Z,11.10
2023-01-05T05:18:09.400Z,11.10
2023-01-05T05:20:37.151Z,11.07
2023-01-05T05:23:03.777Z,10.99
2023-01-05T05:25:30.395Z,11.06
2023-01-05T05:27:56.969Z,11.02
2023-01-05T05:30:23.619Z,11.04
2023-01-05T05:32:50.201Z,10.98
2023-01-05T05:35:17.054Z,10.98
2023-01-05T05:37:43.762Z,10.98
2023-01-05T05:40:11.344Z,11.02
2023-01-05T05:45:09.637Z,10.93
2023-01-05T05:47:36.255Z,10.96
2023-01-05T05:50:02.840Z,10.88
2023-01-05T05:52:29.404Z,10.89
2023-01-05T05:54:56.032Z,10.82
2023-01-05T05:57:22.767Z,10.83
2023-01-05T05:59:49.377Z,10.81
2023-01-05T06:02:16.896Z,10.84
2023-01-05T06:04:43.618Z,10.84
2023-01-05T06:07:10.162Z,10.81
2023-01-05T06:09:36.775Z,10.84
2023-01-05T06:12:03.747Z,10.83
2023-01-05T06:14:30.340Z,10.79
2023-01-05T06:16:56.960Z,10.82
2023-01-05T06:19:23.603Z,10.82
2023-01-05T06:21:50.141Z,10.84
2023-01-05T06:24:16.808Z,10.84
2023-01-05T06:26:43.414Z,10.83
2023-01-05T06:29:10.091Z,10.82
2023-01-05T06:31:36.764Z,10.81
2023-01-05T06:36:34.670Z,10.83
2023-01-05T06:39:01.223Z,10.77
2023-01-05T06:41:27.834Z,10.72
2023-01-05T06:43:54.396Z,10.77
2023-01-05T06:46:21.025Z,10.79
2023-01-05T06:48:47.614Z,10.71
2023-01-05T06:51:14.225Z,10.76
2023-01-05T06:53:40.781Z,10.77
2023-01-05T06:56:07.547Z,10.71
2023-01-05T06:58:34.102Z,10.69
2023-01-05T07:01:00.741Z,10.73
2023-01-05T07:03:27.452Z,10.73
2023-01-05T07:05:54.011Z,10.72
2023-01-05T07:08:20.626Z,10.70
2023-01-05T07:10:47.209Z,10.74
2023-01-05T07:13:13.763Z,10.67
2023-01-05T07:15:40.432Z,10.80
2023-01-05T07:18:07.209Z,10.77
2023-01-05T07:20:33.909Z,10.72
2023-01-05T07:23:00.474Z,10.83
2023-01-05T07:25:31.698Z,10.79
2023-01-05T07:27:58.836Z,10.75
2023-01-05T07:30:25.501Z,10.75
2023-01-05T07:32:52.079Z,10.75
2023-01-05T07:35:18.799Z,10.79
2023-01-05T07:37:45.426Z,10.77
2023-01-05T07:40:12.572Z,10.75
2023-01-05T07:42:39.180Z,10.77
2023-01-05T07:45:06.974Z,10.77
2023-01-05T07:50:07.084Z,10.77
2023-01-05T07:55:12.078Z,10.78
2023-01-05T07:57:38.757Z,10.80
2023-01-05T08:00:06.639Z,10.79
2023-01-05T08:02:36.087Z,10.81
2023-01-05T08:07:36.621Z,10.86
2023-01-05T08:10:22.770Z,10.88
2023-01-05T08:13:08.091Z,10.98
2023-01-05T08:15:34.803Z,10.95
2023-01-05T08:18:01.436Z,10.95
2023-01-05T08:20:27.985Z,10.97
2023-01-05T08:25:28.110Z,10.99
2023-01-05T08:27:54.660Z,10.98
2023-01-05T08:30:21.382Z,10.98
2023-01-05T08:32:47.947Z,10.99
2023-01-05T08:35:14.550Z,10.94
2023-01-05T08:37:44.839Z,11.01
2023-01-05T08:40:11.821Z,11.01
2023-01-05T08:42:38.364Z,11.01
2023-01-05T08:45:05.439Z,11.11
2023-01-05T08:47:31.978Z,11.04
2023-01-05T08:52:38.978Z,10.94
2023-01-05T08:55:08.117Z,10.97
2023-01-05T08:57:34.853Z,10.95
2023-01-05T09:00:01.492Z,10.95
2023-01-05T09:02:28.118Z,10.97
2023-01-05T09:07:34.412Z,10.92
2023-01-05T09:10:00.940Z,10.99
2023-01-05T09:12:32.745Z,11.00
2023-01-05T09:14:59.780Z,11.06
2023-01-05T09:17:26.326Z,10.98
2023-01-05T09:22:24.133Z,10.95
2023-01-05T09:24:50.692Z,11.00
2023-01-05T09:27:17.341Z,11.00
2023-01-05T09:29:43.853Z,10.94
2023-01-05T09:32:11.633Z,10.99
2023-01-05T09:34:38.208Z,10.98
2023-01-05T09:37:04.803Z,10.98
2023-01-05T09:39:31.651Z,10.99
2023-01-05T09:42:04.550Z,10.99
2023-01-05T09:44:41.411Z,11.02
2023-01-05T09:47:14.075Z,11.04
2023-01-05T09:49:41.672Z,11.04
2023-01-05T09:52:11.004Z,11.05
2023-01-05T09:54:39.249Z,11.10
2023-01-05T09:57:15.089Z,11.13
2023-01-05T09:59:45.493Z,11.08
2023-01-05T10:02:33.960Z,11.04
2023-01-05T10:05:02.801Z,11.00
2023-01-05T10:07:53.470Z,11.04
2023-01-05T10:10:38.706Z,10.99
2023-01-05T10:13:08.567Z,11.01
2023-01-05T10:15:46.143Z,10.98
2023-01-05T10:18:15.583Z,11.05
2023-01-05T10:21:06.063Z,11.04
2023-01-05T10:24:09.765Z,10.95
2023-01-05T10:27:23.079Z,10.99
2023-01-05T10:29:47.369Z,10.95
2023-01-05T10:32:26.424Z,11.10
2023-01-05T10:34:57.439Z,11.09
2023-01-05T10:38:06.259Z,11.08
2023-01-05T10:41:01.603Z,11.14
2023-01-05T10:43:49.893Z,11.19
2023-01-05T10:46:32.569Z,11.20
2023-01-05T10:49:02.008Z,11.25
2023-01-05T10:51:33.808Z,11.21
2023-01-05T10:54:02.319Z,11.23
2023-01-05T10:56:29.646Z,11.28
2023-01-05T10:59:11.028Z,11.32
2023-01-05T11:01:43.055Z,11.28
2023-01-05T11:04:33.165Z,11.27
2023-01-05T11:07:06.810Z,11.31
2023-01-05T11:09:38.978Z,11.36
2023-01-05T11:14:47.692Z,11.39
2023-01-05T11:19:58.409Z,11.87
2023-01-05T11:22:35.803Z,11.46
2023-01-05T11:25:22.958Z,11.44
2023-01-05T11:31:05.406Z,11.44
2023-01-05T11:36:14.724Z,11.39
2023-01-05T11:38:41.384Z,11.36
2023-01-05T11:41:12.336Z,11.34
2023-01-05T11:43:38.979Z,11.37
2023-01-05T11:46:05.895Z,11.38
2023-01-05T11:48:35.446Z,11.34
2023-01-05T11:51:03.008Z,11.32
2023-01-05T11:53:35.227Z,11.43
2023-01-05T11:56:07.796Z,11.41
2023-01-05T11:58:45.513Z,11.43
2023-01-05T12:01:32.967Z,11.38
2023-01-05T12:04:19.947Z,11.36
2023-01-05T12:07:01.450Z,11.41
2023-01-05T12:09:35.465Z,11.55
2023-01-05T12:12:23.879Z,11.44
2023-01-05T12:15:12.124Z,11.50
2023-01-05T12:18:10.351Z,11.39
2023-01-05T12:20:57.120Z,11.39
2023-01-05T12:23:54.413Z,11.42
2023-01-05T12:26:36.328Z,11.38
2023-01-05T12:35:18.624Z,11.31
2023-01-05T12:37:59.998Z,11.32
2023-01-05T12:40:58.517Z,11.31
2023-01-05T12:43:36.973Z,11.31
2023-01-05T12:46:09.000Z,11.31
2023-01-05T12:48:51.658Z,11.28
2023-01-05T12:51:23.984Z,11.27
2023-01-05T12:54:09.763Z,11.26
2023-01-05T12:56:55.851Z,11.18
2023-01-05T12:59:35.117Z,11.22
2023-01-05T13:02:23.729Z,11.19
2023-01-05T13:04:59.283Z,11.24
2023-01-05T13:07:42.693Z,11.24
2023-01-05T13:10:21.728Z,11.23
2023-01-05T13:13:00.950Z,11.19
2023-01-05T13:15:38.788Z,11.27
2023-01-05T13:18:07.784Z,11.25
2023-01-05T13:20:38.523Z,11.29
2023-01-05T13:23:14.135Z,11.27
2023-01-05T13:26:04.210Z,11.29
2023-01-05T13:28:32.030Z,11.29
2023-01-05T13:31:21.398Z,11.25
2023-01-05T13:34:15.452Z,11.28
2023-01-05T13:37:00.589Z,11.20
2023-01-05T13:39:57.589Z,11.24
2023-01-05T13:42:42.690Z,11.25
2023-01-05T13:45:35.920Z,11.27
2023-01-05T13:48:34.115Z,11.26
2023-01-05T13:51:18.174Z,11.25
2023-01-05T13:56:28.470Z,11.23
2023-01-05T13:59:34.472Z,11.29
2023-01-05T14:02:04.107Z,11.22
2023-01-05T14:04:34.840Z,11.28
2023-01-05T14:07:06.321Z,11.25
2023-01-05T14:09:40.098Z,11.25
2023-01-05T14:12:09.311Z,11.25
2023-01-05T14:15:02.824Z,11.24
2023-01-05T14:17:58.130Z,11.21
2023-01-05T14:20:49.729Z,11.26
2023-01-05T14:23:22.268Z,11.32
2023-01-05T14:26:04.151Z,11.25
2023-01-05T14:28:30.657Z,11.26
2023-01-05T14:31:17.468Z,11.22
2023-01-05T14:34:03.673Z,11.22
2023-01-05T14:36:42.372Z,11.22
2023-01-05T14:39:17.594Z,11.27
2023-01-05T14:41:46.681Z,11.30
2023-01-05T14:44:23.595Z,11.29
2023-01-05T14:46:55.446Z,11.35
2023-01-05T14:49:30.925Z,11.33
2023-01-05T14:52:00.853Z,11.31
2023-01-05T14:55:05.620Z,11.32
2023-01-05T14:57:49.303Z,11.28
2023-01-05T15:00:22.737Z,11.26
2023-01-05T15:03:05.600Z,11.20
2023-01-05T15:05:34.540Z,11.23
2023-01-05T15:08:16.126Z,11.23
2023-01-05T15:11:02.784Z,11.21
2023-01-05T15:13:43.643Z,11.23
2023-01-05T15:16:41.327Z,11.27
2023-01-05T15:19:35.918Z,11.25
2023-01-05T15:22:37.143Z,11.25
2023-01-05T15:28:18.801Z,11.17
2023-01-05T15:31:13.411Z,11.14
2023-01-05T15:33:52.088Z,11.19
2023-01-05T15:36:26.843Z,11.19
2023-01-05T15:38:54.563Z,11.16
2023-01-05T15:41:22.665Z,11.15
2023-01-05T15:43:50.402Z,11.19
2023-01-05T15:46:19.660Z,11.07
2023-01-05T15:48:49.877Z,11.15
2023-01-05T15:54:05.528Z,11.12
2023-01-05T15:56:39.811Z,11.11
2023-01-05T15:59:22.597Z,11.21
2023-01-05T16:01:49.233Z,11.14
2023-01-05T16:04:15.955Z,11.13
2023-01-05T16:06:47.531Z,11.14
2023-01-05T16:09:22.139Z,11.11
2023-01-05T16:11:51.013Z,11.05
2023-01-05T16:14:21.924Z,11.08
2023-01-05T16:16:54.630Z,11.08
2023-01-05T16:22:30.895Z,11.15
2023-01-05T16:25:08.412Z,11.11
2023-01-05T16:30:31.642Z,11.12
2023-01-05T16:33:13.345Z,11.16
2023-01-05T16:35:48.536Z,11.09
2023-01-05T16:41:08.329Z,11.13
2023-01-05T16:43:45.667Z,11.14
2023-01-05T16:46:20.445Z,11.10
2023-01-05T16:48:51.005Z,11.01
2023-01-05T16:51:21.253Z,11.09
2023-01-05T16:53:57.051Z,11.08
2023-01-05T16:56:32.833Z,11.06
2023-01-05T16:59:00.460Z,11.02
2023-01-05T17:01:44.415Z,11.03
2023-01-05T17:04:12.637Z,11.03
2023-01-05T17:06:40.995Z,10.99
2023-01-05T17:09:18.807Z,10.96
2023-01-05T17:11:45.318Z,10.95
2023-01-05T17:14:13.319Z,10.91
2023-01-05T17:16:39.921Z,10.87
2023-01-05T17:19:13.190Z,10.80
2023-01-05T17:21:44.583Z,10.83
2023-01-05T17:24:13.099Z,10.68
2023-01-05T17:26:43.606Z,10.68
2023-01-05T17:29:21.334Z,10.72
2023-01-05T17:34:20.767Z,10.76
2023-01-05T17:36:48.986Z,10.81
2023-01-05T17:39:20.351Z,10.74
2023-01-05T17:41:47.159Z,10.74
2023-01-05T17:44:14.159Z,10.76
2023-01-05T17:46:42.876Z,10.83
2023-01-05T17:49:18.277Z,10.72
2023-01-05T17:51:45.332Z,10.67
2023-01-05T17:54:12.526Z,10.52
2023-01-05T17:56:39.369Z,10.47
2023-01-05T17:59:06.080Z,10.50
2023-01-05T18:01:35.488Z,10.54
2023-01-05T18:04:02.140Z,10.51
2023-01-05T18:06:28.759Z,10.37
2023-01-05T18:08:55.363Z,10.41
2023-01-05T18:11:22.047Z,10.38
2023-01-05T18:13:48.811Z,10.27
2023-01-05T18:16:15.871Z,10.07
2023-01-05T18:18:43.039Z,10.08
2023-01-05T18:21:09.740Z,10.20
2023-01-05T18:23:36.513Z,10.07
2023-01-05T18:26:08.423Z,10.25
2023-01-05T18:28:36.172Z,9.97
2023-01-05T18:31:12.812Z,10.02
2023-01-05T18:33:39.491Z,10.50
2023-01-05T18:36:12.966Z,10.45
2023-01-05T18:38:39.821Z,10.39
2023-01-05T18:41:06.909Z,10.37
2023-01-05T18:43:33.783Z,10.04
2023-01-05T18:46:01.307Z,9.91
2023-01-05T18:48:27.986Z,9.84
2023-01-05T18:50:54.888Z,9.86
2023-01-05T18:53:22.313Z,9.80
2023-01-05T18:55:49.150Z,9.73
2023-01-05T19:00:48.056Z,9.64
2023-01-05T19:03:15.037Z,9.59
2023-01-05T19:05:43.745Z,9.65
2023-01-05T19:08:12.452Z,9.70
2023-01-05T19:10:39.345Z,9.72
2023-01-05T19:13:06.261Z,9.65
2023-01-05T19:15:37.219Z,9.78
2023-01-05T19:18:04.763Z,9.79
2023-01-05T19:20:31.954Z,9.92
2023-01-05T19:22:59.987Z,9.94
2023-01-05T19:25:26.661Z,9.89
2023-01-05T19:27:53.249Z,9.94
2023-01-05T19:30:22.471Z,9.99
2023-01-05T19:32:49.596Z,10.06
2023-01-05T19:35:16.272Z,10.08
2023-01-05T19:37:42.804Z,10.20
2023-01-05T19:40:10.498Z,11.44
2023-01-05T19:42:37.147Z,11.22
2023-01-05T19:45:04.170Z,10.77
2023-01-05T19:47:31.125Z,10.61
2023-01-05T19:49:57.672Z,10.48
2023-01-05T19:52:29.768Z,10.48
2023-01-05T19:57:29.999Z,10.48
2023-01-05T19:59:56.562Z,10.50
2023-01-05T20:02:23.207Z,10.65
2023-01-05T20:04:50.302Z,10.74
2023-01-05T20:07:16.884Z,11.02
2023-01-05T20:09:43.497Z,10.94
2023-01-05T20:12:14.727Z,10.96
2023-01-05T20:17:19.246Z,10.80
2023-01-05T20:19:46.217Z,10.87
2023-01-05T20:22:14.416Z,10.90
2023-01-05T20:24:41.941Z,10.91
2023-01-05T20:27:13.342Z,10.93
2023-01-05T20:29:40.912Z,10.90
2023-01-05T20:34:59.385Z,10.88
2023-01-05T20:37:31.466Z,10.89
2023-01-05T20:53:14.373Z,10.96
2023-01-05T20:55:50.923Z,10.94
2023-01-05T20:58:24.602Z,10.98
2023-01-05T21:01:10.104Z,10.81
2023-01-05T21:03:45.047Z,10.83
2023-01-05T21:06:19.304Z,10.76
2023-01-05T21:08:52.224Z,10.81
2023-01-05T21:11:26.193Z,10.76
2023-01-05T21:16:48.600Z,10.75
2023-01-05T21:19:18.229Z,10.83
2023-01-05T21:21:46.678Z,10.76
2023-01-05T21:24:14.606Z,10.60
2023-01-05T21:26:41.423Z,10.58
2023-01-05T21:29:10.199Z,10.58
2023-01-05T21:31:37.761Z,10.63
2023-01-05T21:34:04.835Z,10.60
2023-01-05T21:36:36.409Z,10.52
2023-01-05T21:39:11.960Z,10.54
2023-01-05T21:41:58.821Z,10.48
2023-01-05T21:44:25.909Z,10.63
2023-01-05T21:46:52.581Z,10.49
2023-01-05T21:49:19.849Z,10.57
2023-01-05T21:55:02.160Z,10.58
2023-01-05T21:57:28.806Z,10.69
2023-01-05T22:02:35.935Z,10.78
2023-01-05T22:05:02.640Z,10.74
2023-01-05T22:07:31.895Z,10.68
2023-01-05T22:09:58.472Z,10.79
2023-01-05T22:12:25.193Z,10.80
2023-01-05T22:17:34.432Z,10.82
2023-01-05T22:20:01.017Z,10.81
2023-01-05T22:22:33.662Z,10.87
2023-01-05T22:25:06.585Z,10.87
2023-01-05T22:27:39.166Z,10.75
2023-01-05T22:30:12.140Z,10.80
2023-01-05T22:32:44.755Z,10.75
2023-01-05T22:35:17.447Z,10.82
2023-01-05T22:37:52.415Z,10.83
2023-01-05T22:40:25.126Z,10.75
2023-01-05T22:42:57.782Z,10.79
2023-01-05T22:45:32.583Z,10.84
2023-01-05T22:48:05.655Z,10.77
2023-01-05T22:50:38.350Z,10.75
2023-01-05T22:53:11.194Z,10.80
2023-01-05T22:55:44.293Z,10.86
2023-01-05T22:58:16.930Z,10.80
2023-01-05T23:00:49.611Z,10.76
2023-01-05T23:03:22.755Z,10.83
2023-01-05T23:05:55.369Z,10.80
2023-01-05T23:08:28.398Z,10.76
2023-01-05T23:11:07.369Z,10.77
2023-01-05T23:13:40.996Z,10.80
2023-01-05T23:16:14.548Z,10.79
2023-01-05T23:18:49.050Z,10.77
2023-01-05T23:21:24.313Z,10.83
2023-01-05T23:23:58.202Z,10.96
2023-01-05T23:26:31.145Z,11.05
2023-01-05T23:29:04.189Z,11.08
2023-01-05T23:31:36.992Z,10.98
2023-01-05T23:34:09.631Z,10.77
2023-01-05T23:36:42.285Z,10.74
2023-01-05T23:39:14.990Z,10.88
2023-01-05T23:41:47.718Z,10.90
2023-01-05T23:46:51.564Z,10.82
2023-01-05T23:49:18.062Z,10.88
2023-01-05T23:51:44.659Z,10.92
2023-01-05T23:54:11.253Z,10.78
2023-01-05T23:56:37.903Z,10.71
